Time;durP1;ratioP1;P1;durP2;ratioP2;P2;SDS_P1;SDS_P2;PMS_P1;PMS_P2;Temp;Humidity;BMP_temperature;BMP_pressure;BME280_temperature;BME280_humidity;BME280_pressure;Samples;Min_cycle;Max_cycle;Signal;HPM_P1;HPM_P2
2023/05/17 00:00:15;;;;;;;19.17;5.67;;;;;;;;;;5041547;28;20231;-79
2023/05/17 00:02:41;;;;;;;19.83;6.10;;;;;;;;;;5057705;28;20232;-80
2023/05/17 00:05:08;;;;;;;19.33;5.40;;;;;;;;;;5039666;28;20194;-80
2023/05/17 00:07:34;;;;;;;19.38;6.97;;;;;;;;;;5040397;28;20407;-80
2023/05/17 00:10:00;;;;;;;17.87;5.47;;;;;;;;;;5040157;28;20176;-80
2023/05/17 00:12:26;;;;;;;20.97;5.77;;;;;;;;;;5038240;28;20258;-80
2023/05/17 00:14:52;;;;;;;24.23;6.03;;;;;;;;;;5031213;28;20198;-80
2023/05/17 00:17:18;;;;;;;17.93;5.67;;;;;;;;;;5041328;28;20227;-80
2023/05/17 00:19:44;;;;;;;20.93;6.00;;;;;;;;;;5040972;28;20218;-80
2023/05/17 00:22:10;;;;;;;19.27;5.50;;;;;;;;;;5041000;28;20283;-80
2023/05/17 00:24:36;;;;;;;20.77;6.00;;;;;;;;;;5039334;28;20183;-82
2023/05/17 00:27:02;;;;;;;21.58;6.72;;;;;;;;;;5040675;28;20418;-81
2023/05/17 00:29:28;;;;;;;19.93;6.37;;;;;;;;;;5057601;28;20273;-82
2023/05/17 00:31:54;;;;;;;13.67;5.80;;;;;;;;;;5040917;28;20183;-82
2023/05/17 00:34:20;;;;;;;18.73;6.20;;;;;;;;;;5039215;28;20194;-81
2023/05/17 00:36:46;;;;;;;21.03;6.20;;;;;;;;;;5040793;28;20305;-82
2023/05/17 00:39:12;;;;;;;21.57;6.83;;;;;;;;;;5057278;28;20234;-82
2023/05/17 00:41:38;;;;;;;16.27;6.50;;;;;;;;;;5057455;28;20175;-89
2023/05/17 00:44:04;;;;;;;20.53;6.27;;;;;;;;;;5056427;28;20186;-88
2023/05/17 00:46:32;;;;;;;21.17;6.57;;;;;;;;;;5040676;28;20221;-89
2023/05/17 00:48:58;;;;;;;21.75;8.10;;;;;;;;;;5040198;28;20425;-88
2023/05/17 00:51:24;;;;;;;25.55;8.30;;;;;;;;;;5039341;28;20420;-89
2023/05/17 00:53:50;;;;;;;24.13;7.90;;;;;;;;;;5056719;28;20403;-88
2023/05/17 00:56:17;;;;;;;26.67;7.43;;;;;;;;;;5039000;28;20220;-89
2023/05/17 00:58:43;;;;;;;17.73;6.73;;;;;;;;;;5040370;28;20176;-83
2023/05/17 01:01:09;;;;;;;20.07;6.33;;;;;;;;;;5040087;28;20281;-82
2023/05/17 01:03:35;;;;;;;21.83;7.72;;;;;;;;;;5056148;28;20406;-82
2023/05/17 01:06:01;;;;;;;26.07;7.03;;;;;;;;;;5037053;28;20187;-82
2023/05/17 01:08:28;;;;;;;18.23;6.70;;;;;;;;;;5040514;28;20184;-83
2023/05/17 01:10:54;;;;;;;24.70;8.40;;;;;;;;;;5039705;28;20471;-82
2023/05/17 01:13:52;;;;;;;25.52;8.13;;;;;;;;;;5046988;28;20420;-83
2023/05/17 01:16:22;;;;;;;25.92;8.18;;;;;;;;;;5035512;28;20454;-82
2023/05/17 01:18:56;;;;;;;24.27;7.80;;;;;;;;;;5035719;28;20407;-83
2023/05/17 01:21:30;;;;;;;22.70;7.70;;;;;;;;;;5035179;28;20403;-83
2023/05/17 01:24:06;;;;;;;21.88;8.00;;;;;;;;;;5034736;28;20416;-83
2023/05/17 01:26:38;;;;;;;22.98;8.35;;;;;;;;;;5035326;28;20510;-82
2023/05/17 01:29:04;;;;;;;28.30;8.77;;;;;;;;;;5035385;28;20412;-82
2023/05/17 01:31:31;;;;;;;24.63;7.72;;;;;;;;;;5035126;28;20404;-82
2023/05/17 01:33:57;;;;;;;23.67;8.07;;;;;;;;;;5048872;28;20430;-82
2023/05/17 01:36:25;;;;;;;25.95;8.23;;;;;;;;;;5038750;28;20426;-82
2023/05/17 01:38:51;;;;;;;20.17;6.67;;;;;;;;;;5055992;28;20168;-82
2023/05/17 01:41:30;;;;;;;26.47;6.93;;;;;;;;;;5056155;28;20167;-82
2023/05/17 01:44:07;;;;;;;20.50;7.10;;;;;;;;;;5058719;28;20420;-82
2023/05/17 01:46:33;;;;;;;24.30;6.90;;;;;;;;;;5036050;28;20176;-82
2023/05/17 01:49:11;;;;;;;20.00;6.93;;;;;;;;;;5036351;28;20199;-82
2023/05/17 01:51:44;;;;;;;17.33;6.82;;;;;;;;;;5035978;28;20077;-82
2023/05/17 01:54:11;;;;;;;24.25;8.48;;;;;;;;;;5035161;28;20415;-82
2023/05/17 01:56:40;;;;;;;25.35;8.98;;;;;;;;;;5068720;28;20429;-82
2023/05/17 01:59:06;;;;;;;26.50;8.80;;;;;;;;;;5071852;28;20433;-82
2023/05/17 02:01:34;;;;;;;17.93;7.53;;;;;;;;;;5071759;28;20346;-82
2023/05/17 02:04:00;;;;;;;24.55;8.52;;;;;;;;;;5055648;28;20449;-82
2023/05/17 02:06:26;;;;;;;27.13;9.27;;;;;;;;;;5053124;28;20466;-82
2023/05/17 02:08:52;;;;;;;27.23;8.17;;;;;;;;;;5056105;28;20178;-82
2023/05/17 02:11:18;;;;;;;24.30;8.88;;;;;;;;;;5038754;28;20403;-82
2023/05/17 02:13:44;;;;;;;26.38;9.80;;;;;;;;;;5029901;28;20459;-82
2023/05/17 02:16:10;;;;;;;26.25;9.70;;;;;;;;;;5006617;28;20452;-81
2023/05/17 02:18:36;;;;;;;25.15;9.50;;;;;;;;;;5015160;28;20414;-81
2023/05/17 02:21:03;;;;;;;28.37;9.60;;;;;;;;;;4998747;28;20402;-82
2023/05/17 02:23:29;;;;;;;26.70;10.07;;;;;;;;;;4998679;28;20410;-82
2023/05/17 02:25:55;;;;;;;30.27;10.50;;;;;;;;;;5031114;28;20476;-82
2023/05/17 02:28:21;;;;;;;24.38;10.27;;;;;;;;;;5038447;28;20619;-82
2023/05/17 02:30:47;;;;;;;24.73;9.73;;;;;;;;;;5038434;28;20473;-82
2023/05/17 02:33:13;;;;;;;25.77;10.40;;;;;;;;;;5057321;28;20436;-82
2023/05/17 02:35:39;;;;;;;26.20;10.50;;;;;;;;;;5052519;28;20435;-82
2023/05/17 02:38:05;;;;;;;26.40;10.32;;;;;;;;;;5038653;28;20400;-82
2023/05/17 02:40:31;;;;;;;27.58;10.20;;;;;;;;;;5037970;28;20415;-82
2023/05/17 02:42:57;;;;;;;27.55;10.38;;;;;;;;;;5021797;28;20419;-82
2023/05/17 02:45:23;;;;;;;26.10;10.30;;;;;;;;;;5022178;28;20484;-82
2023/05/17 02:47:49;;;;;;;28.77;11.30;;;;;;;;;;5021905;28;20462;-82
2023/05/17 02:50:15;;;;;;;25.25;10.30;;;;;;;;;;5035498;28;20446;-82
2023/05/17 02:52:41;;;;;;;23.77;9.82;;;;;;;;;;5041788;28;20390;-82
2023/05/17 02:55:08;;;;;;;15.57;8.87;;;;;;;;;;5042041;28;20184;-79
2023/05/17 02:57:34;;;;;;;24.97;9.03;;;;;;;;;;5059101;28;20243;-80
2023/05/17 03:00:00;;;;;;;21.27;9.03;;;;;;;;;;5057393;28;20262;-79
2023/05/17 03:02:26;;;;;;;25.67;9.47;;;;;;;;;;5059943;28;20182;-79
2023/05/17 03:04:51;;;;;;;24.30;9.57;;;;;;;;;;5042691;28;20187;-80
2023/05/17 03:07:17;;;;;;;24.57;9.37;;;;;;;;;;5042047;28;20229;-79
2023/05/17 03:09:43;;;;;;;27.50;9.07;;;;;;;;;;5057818;28;20214;-79
2023/05/17 03:12:10;;;;;;;27.10;9.30;;;;;;;;;;5059192;28;20207;-90
2023/05/17 03:14:36;;;;;;;19.17;8.90;;;;;;;;;;5042571;28;20179;-89
2023/05/17 03:17:02;;;;;;;20.07;8.27;;;;;;;;;;5058739;28;20215;-89
2023/05/17 03:19:28;;;;;;;24.10;8.37;;;;;;;;;;5042514;28;20183;-89
2023/05/17 03:21:54;;;;;;;21.63;8.47;;;;;;;;;;5057031;28;20215;-90
2023/05/17 03:24:20;;;;;;;20.43;8.70;;;;;;;;;;5042770;28;20179;-88
2023/05/17 03:26:46;;;;;;;19.13;9.23;;;;;;;;;;5042473;28;20214;-89
2023/05/17 03:29:12;;;;;;;15.80;8.17;;;;;;;;;;5058658;28;20215;-89
2023/05/17 03:31:38;;;;;;;24.47;8.63;;;;;;;;;;5040733;28;20187;-89
2023/05/17 03:34:04;;;;;;;25.87;9.93;;;;;;;;;;5060802;28;20284;-87
2023/05/17 03:36:30;;;;;;;23.47;9.17;;;;;;;;;;5025639;28;20335;-89
2023/05/17 03:38:56;;;;;;;27.60;9.10;;;;;;;;;;5059136;28;20266;-89
2023/05/17 03:41:22;;;;;;;20.73;8.53;;;;;;;;;;5042518;28;20191;-89
2023/05/17 03:43:48;;;;;;;21.33;9.50;;;;;;;;;;5057421;28;20211;-89
2023/05/17 03:46:14;;;;;;;21.57;9.00;;;;;;;;;;5040132;28;20198;-82
2023/05/17 03:48:40;;;;;;;21.87;8.60;;;;;;;;;;5040700;28;20286;-82
2023/05/17 03:51:06;;;;;;;20.40;8.87;;;;;;;;;;5038238;28;20196;-82
2023/05/17 03:53:32;;;;;;;23.67;9.43;;;;;;;;;;5038104;28;20203;-82
2023/05/17 03:55:58;;;;;;;23.27;9.70;;;;;;;;;;5051359;28;20219;-82
2023/05/17 03:58:24;;;;;;;19.30;8.43;;;;;;;;;;5058117;28;20186;-82
2023/05/17 04:00:50;;;;;;;18.90;8.77;;;;;;;;;;5041369;28;20235;-82
2023/05/17 04:03:16;;;;;;;19.83;8.53;;;;;;;;;;5057911;28;20194;-82
2023/05/17 04:05:45;;;;;;;22.03;8.50;;;;;;;;;;5039527;28;20187;-82
2023/05/17 04:08:11;;;;;;;22.10;8.67;;;;;;;;;;5058375;28;20286;-82
2023/05/17 04:10:40;;;;;;;21.73;9.23;;;;;;;;;;5039743;28;20207;-82
2023/05/17 04:13:06;;;;;;;21.97;8.87;;;;;;;;;;5021357;28;20234;-82
2023/05/17 04:15:32;;;;;;;20.50;7.77;;;;;;;;;;5019226;28;20188;-82
2023/05/17 04:17:58;;;;;;;24.93;8.10;;;;;;;;;;5037152;28;20184;-82
2023/05/17 04:20:24;;;;;;;22.23;8.03;;;;;;;;;;5020752;28;20180;-82
2023/05/17 04:22:50;;;;;;;17.03;8.07;;;;;;;;;;5037805;28;20180;-82
2023/05/17 04:25:17;;;;;;;21.93;8.60;;;;;;;;;;5056743;28;20191;-82
2023/05/17 04:27:43;;;;;;;20.23;7.43;;;;;;;;;;5057474;28;20183;-82
2023/05/17 04:30:09;;;;;;;21.03;8.03;;;;;;;;;;5040023;28;20187;-82
2023/05/17 04:32:35;;;;;;;21.30;7.67;;;;;;;;;;5055393;28;20185;-82
2023/05/17 04:35:02;;;;;;;22.13;8.00;;;;;;;;;;5017782;28;20192;-89
2023/05/17 04:37:28;;;;;;;19.57;8.87;;;;;;;;;;5037277;28;20215;-90
2023/05/17 04:39:54;;;;;;;20.55;9.05;;;;;;;;;;5056382;28;20465;-89
2023/05/17 04:42:20;;;;;;;19.93;8.13;;;;;;;;;;5044843;28;20183;-89
2023/05/17 04:44:46;;;;;;;22.83;7.47;;;;;;;;;;5027967;28;20175;-89
2023/05/17 04:47:12;;;;;;;24.70;8.30;;;;;;;;;;5022507;28;20209;-89
2023/05/17 04:49:38;;;;;;;22.10;7.57;;;;;;;;;;5018281;28;20216;-89
2023/05/17 04:52:05;;;;;;;23.57;8.33;;;;;;;;;;5020656;28;20184;-82
2023/05/17 04:54:31;;;;;;;17.97;8.13;;;;;;;;;;5020359;28;20191;-82
2023/05/17 04:56:57;;;;;;;19.80;8.23;;;;;;;;;;5036376;28;20213;-82
2023/05/17 04:59:23;;;;;;;23.77;8.47;;;;;;;;;;5039957;28;20223;-82
2023/05/17 05:01:49;;;;;;;24.07;7.73;;;;;;;;;;5034197;28;20194;-82
2023/05/17 05:04:15;;;;;;;20.40;7.73;;;;;;;;;;5039285;28;20184;-82
2023/05/17 05:06:41;;;;;;;20.77;7.10;;;;;;;;;;5023835;28;20189;-82
2023/05/17 05:09:07;;;;;;;18.33;7.50;;;;;;;;;;5017271;28;20215;-79
2023/05/17 05:11:33;;;;;;;17.23;6.80;;;;;;;;;;5033279;28;20189;-79
2023/05/17 05:13:59;;;;;;;20.60;7.30;;;;;;;;;;5033090;28;20192;-79
2023/05/17 05:16:25;;;;;;;15.27;6.10;;;;;;;;;;5036175;28;20211;-79
2023/05/17 05:18:51;;;;;;;19.00;5.73;;;;;;;;;;5033972;28;20187;-79
2023/05/17 05:21:17;;;;;;;17.47;6.37;;;;;;;;;;5020139;28;20184;-79
2023/05/17 05:23:43;;;;;;;16.67;6.43;;;;;;;;;;5018939;28;20199;-79
2023/05/17 05:26:09;;;;;;;19.03;6.30;;;;;;;;;;5033410;28;20191;-89
2023/05/17 05:28:36;;;;;;;19.50;6.47;;;;;;;;;;5030556;28;20215;-89
2023/05/17 05:31:02;;;;;;;23.17;6.50;;;;;;;;;;5014975;28;20192;-89
2023/05/17 05:33:28;;;;;;;22.90;5.83;;;;;;;;;;5020105;28;20195;-89
2023/05/17 05:35:54;;;;;;;20.53;5.80;;;;;;;;;;5033227;28;20208;-89
2023/05/17 05:38:20;;;;;;;21.70;6.47;;;;;;;;;;5034275;28;20176;-89
2023/05/17 05:40:49;;;;;;;18.17;5.87;;;;;;;;;;5016682;28;20180;-83
2023/05/17 05:43:15;;;;;;;22.80;5.97;;;;;;;;;;5032947;28;20180;-82
2023/05/17 05:45:44;;;;;;;20.37;6.00;;;;;;;;;;5016231;28;20180;-82
2023/05/17 05:48:11;;;;;;;25.13;6.00;;;;;;;;;;5032806;28;20212;-82
2023/05/17 05:50:37;;;;;;;17.90;5.53;;;;;;;;;;5042195;28;20187;-82
2023/05/17 05:53:03;;;;;;;19.90;5.50;;;;;;;;;;5045167;28;20191;-82
2023/05/17 05:55:29;;;;;;;14.20;5.60;;;;;;;;;;5070000;28;20191;-82
2023/05/17 05:57:55;;;;;;;16.63;5.50;;;;;;;;;;5048736;28;20203;-90
2023/05/17 06:00:21;;;;;;;20.50;5.03;;;;;;;;;;5039610;28;20265;-89
2023/05/17 06:02:47;;;;;;;20.38;6.10;;;;;;;;;;5028304;28;20555;-90
2023/05/17 06:05:13;;;;;;;20.88;6.32;;;;;;;;;;5016520;28;20429;-89
2023/05/17 06:07:39;;;;;;;20.63;5.95;;;;;;;;;;5020427;28;20489;-87
2023/05/17 06:10:06;;;;;;;19.05;5.82;;;;;;;;;;5023330;28;20400;-90
2023/05/17 06:12:32;;;;;;;17.65;5.55;;;;;;;;;;5008311;28;20426;-89
2023/05/17 06:14:58;;;;;;;21.10;5.50;;;;;;;;;;5036236;28;20429;-79
2023/05/17 06:17:24;;;;;;;21.92;5.95;;;;;;;;;;5039082;28;20436;-79
2023/05/17 06:19:51;;;;;;;21.95;5.50;;;;;;;;;;5021003;28;20461;-79
2023/05/17 06:22:17;;;;;;;19.38;5.32;;;;;;;;;;5019491;28;20514;-79
2023/05/17 06:24:44;;;;;;;17.60;5.30;;;;;;;;;;5038746;28;20435;-79
2023/05/17 06:27:10;;;;;;;19.27;4.13;;;;;;;;;;5022580;28;20467;-79
2023/05/17 06:29:36;;;;;;;15.70;3.47;;;;;;;;;;5059750;28;20216;-80
2023/05/17 06:32:02;;;;;;;15.37;3.80;;;;;;;;;;5019379;28;20193;-82
2023/05/17 06:34:28;;;;;;;14.75;3.90;;;;;;;;;;5018789;28;20461;-82
2023/05/17 06:36:54;;;;;;;15.20;3.85;;;;;;;;;;5002535;28;20468;-82
2023/05/17 06:39:20;;;;;;;17.52;3.78;;;;;;;;;;5018981;28;20504;-82
2023/05/17 06:41:47;;;;;;;16.05;4.00;;;;;;;;;;5034819;28;20431;-82
2023/05/17 06:44:13;;;;;;;14.55;3.85;;;;;;;;;;5037634;28;20438;-82
2023/05/17 06:46:39;;;;;;;14.53;3.10;;;;;;;;;;5020815;28;20187;-82
2023/05/17 06:49:05;;;;;;;13.90;3.30;;;;;;;;;;5008170;28;20479;-82
2023/05/17 06:51:31;;;;;;;14.93;3.00;;;;;;;;;;5021518;28;20207;-82
2023/05/17 06:53:57;;;;;;;14.50;3.60;;;;;;;;;;5037107;28;20439;-82
2023/05/17 06:56:23;;;;;;;110.75;86.57;;;;;;;;;;5036687;28;20460;-82
2023/05/17 06:58:49;;;;;;;17.47;3.43;;;;;;;;;;5022588;28;20177;-82
2023/05/17 07:01:15;;;;;;;11.83;3.00;;;;;;;;;;5040439;28;20258;-81
2023/05/17 07:03:42;;;;;;;13.87;2.83;;;;;;;;;;5041203;28;20195;-82
2023/05/17 07:06:08;;;;;;;13.47;3.10;;;;;;;;;;5058674;28;20262;-83
2023/05/17 07:08:34;;;;;;;12.33;2.80;;;;;;;;;;5048765;28;20448;-82
2023/05/17 07:11:00;;;;;;;10.15;2.80;;;;;;;;;;5034850;28;20443;-83
2023/05/17 07:13:26;;;;;;;12.18;2.97;;;;;;;;;;5024825;28;20408;-83
2023/05/17 07:15:52;;;;;;;11.97;3.47;;;;;;;;;;5037591;28;20516;-83
2023/05/17 07:18:18;;;;;;;12.75;3.10;;;;;;;;;;5044540;28;20410;-83
2023/05/17 07:20:44;;;;;;;11.90;2.95;;;;;;;;;;5030261;28;20408;-83
2023/05/17 07:23:10;;;;;;;13.47;3.43;;;;;;;;;;5043778;28;20499;-83
2023/05/17 07:25:39;;;;;;;11.50;3.07;;;;;;;;;;5039371;28;20419;-83
2023/05/17 07:28:05;;;;;;;14.93;3.33;;;;;;;;;;5075070;28;20489;-83
2023/05/17 07:30:31;;;;;;;11.88;3.00;;;;;;;;;;5048155;28;20515;-83
2023/05/17 07:32:57;;;;;;;10.25;2.83;;;;;;;;;;5023419;28;20442;-83
2023/05/17 07:35:23;;;;;;;14.73;3.50;;;;;;;;;;5050861;28;20455;-83
2023/05/17 07:37:49;;;;;;;15.95;3.15;;;;;;;;;;5040376;28;20434;-79
2023/05/17 07:40:16;;;;;;;14.70;3.40;;;;;;;;;;5057091;28;20433;-79
2023/05/17 07:42:42;;;;;;;13.95;3.10;;;;;;;;;;5037450;28;20412;-80
2023/05/17 07:45:08;;;;;;;15.82;3.22;;;;;;;;;;5038675;28;20488;-79
2023/05/17 07:47:34;;;;;;;12.93;3.20;;;;;;;;;;5056982;28;20413;-80
2023/05/17 07:50:00;;;;;;;11.93;3.03;;;;;;;;;;5039150;28;20420;-79
2023/05/17 07:52:26;;;;;;;12.82;3.22;;;;;;;;;;5045429;28;20502;-80
2023/05/17 07:54:52;;;;;;;12.50;3.13;;;;;;;;;;5037205;28;20412;-82
2023/05/17 07:57:18;;;;;;;12.05;3.20;;;;;;;;;;5057701;28;20493;-82
2023/05/17 07:59:44;;;;;;;11.53;3.10;;;;;;;;;;5038865;28;20605;-82
2023/05/17 08:02:10;;;;;;;12.15;3.25;;;;;;;;;;5040401;28;20426;-82
2023/05/17 08:04:37;;;;;;;10.82;3.13;;;;;;;;;;5056831;28;20468;-82
2023/05/17 08:07:03;;;;;;;12.77;2.95;;;;;;;;;;5033391;28;20465;-82
2023/05/17 08:09:29;;;;;;;13.43;3.10;;;;;;;;;;5073496;28;20405;-82
2023/05/17 08:11:55;;;;;;;10.93;2.67;;;;;;;;;;5058324;28;20257;-90
2023/05/17 08:14:21;;;;;;;13.98;2.67;;;;;;;;;;5047264;28;20491;-90
2023/05/17 08:16:47;;;;;;;11.32;3.10;;;;;;;;;;5056532;28;20418;-90
2023/05/17 08:19:15;;;;;;;12.07;2.95;;;;;;;;;;5055061;28;20480;-90
2023/05/17 08:21:41;;;;;;;12.40;3.03;;;;;;;;;;5057745;28;20490;-90
2023/05/17 08:24:07;;;;;;;9.73;2.90;;;;;;;;;;5074703;28;20398;-89
2023/05/17 08:26:33;;;;;;;9.68;2.72;;;;;;;;;;5071685;28;20486;-89
2023/05/17 08:29:01;;;;;;;11.23;3.00;;;;;;;;;;5057456;28;20418;-83
2023/05/17 08:31:27;;;;;;;11.98;3.08;;;;;;;;;;5055726;28;20402;-83
2023/05/17 08:33:53;;;;;;;9.50;3.05;;;;;;;;;;5039645;28;20414;-83
2023/05/17 08:36:19;;;;;;;7.60;2.70;;;;;;;;;;5040016;28;20446;-83
2023/05/17 08:38:45;;;;;;;8.95;2.60;;;;;;;;;;5088961;28;20408;-84
2023/05/17 08:41:12;;;;;;;9.03;2.60;;;;;;;;;;5075719;28;20430;-83
2023/05/17 08:43:39;;;;;;;8.07;2.47;;;;;;;;;;5038931;28;20503;-83
2023/05/17 08:46:05;;;;;;;9.57;2.60;;;;;;;;;;5067459;28;20462;-82
2023/05/17 08:48:35;;;;;;;8.95;2.60;;;;;;;;;;5074358;28;20448;-90
2023/05/17 08:51:02;;;;;;;9.30;2.60;;;;;;;;;;5055822;28;20412;-83
2023/05/17 08:53:28;;;;;;;11.50;2.83;;;;;;;;;;5071856;28;20414;-83
2023/05/17 08:55:59;;;;;;;8.37;2.67;;;;;;;;;;5058408;28;20433;-83
2023/05/17 08:58:30;;;;;;;8.73;2.40;;;;;;;;;;5076007;28;20501;-83
2023/05/17 09:00:58;;;;;;;9.15;2.60;;;;;;;;;;5078381;28;20425;-83
2023/05/17 09:03:25;;;;;;;8.50;2.70;;;;;;;;;;5071616;28;20414;-83
2023/05/17 09:05:54;;;;;;;6.22;2.17;;;;;;;;;;5034147;28;20422;-83
2023/05/17 09:08:23;;;;;;;7.45;2.25;;;;;;;;;;5053168;28;20410;-82
2023/05/17 09:10:49;;;;;;;10.70;2.47;;;;;;;;;;5073920;28;20421;-83
2023/05/17 09:13:15;;;;;;;9.80;2.50;;;;;;;;;;5072396;28;20426;-83
2023/05/17 09:15:42;;;;;;;5.80;2.10;;;;;;;;;;5071625;28;20450;-82
2023/05/17 09:18:11;;;;;;;7.68;2.28;;;;;;;;;;5056266;28;20491;-82
2023/05/17 09:20:38;;;;;;;6.35;2.20;;;;;;;;;;5037270;28;20433;-82
2023/05/17 09:23:05;;;;;;;8.10;2.40;;;;;;;;;;5060903;28;20403;-82
2023/05/17 09:25:31;;;;;;;5.30;2.00;;;;;;;;;;5039235;28;20184;-80
2023/05/17 09:28:01;;;;;;;8.50;2.10;;;;;;;;;;5074323;28;20265;-80
2023/05/17 09:30:31;;;;;;;6.60;2.53;;;;;;;;;;5066226;28;20207;-79
2023/05/17 09:32:58;;;;;;;5.83;1.93;;;;;;;;;;5054977;28;20194;-79
2023/05/17 09:35:30;;;;;;;5.87;1.60;;;;;;;;;;5046718;28;20203;-82
2023/05/17 09:38:12;;;;;;;7.53;2.10;;;;;;;;;;5056304;28;20228;-83
2023/05/17 09:40:43;;;;;;;5.80;1.77;;;;;;;;;;5054842;28;20214;-81
2023/05/17 09:43:10;;;;;;;5.63;1.50;;;;;;;;;;5055023;28;20187;-81
2023/05/17 09:45:36;;;;;;;5.93;1.70;;;;;;;;;;5039763;28;20282;-82
2023/05/17 09:48:21;;;;;;;6.07;2.13;;;;;;;;;;5069254;28;20417;-82
2023/05/17 09:50:48;;;;;;;6.20;1.80;;;;;;;;;;5053647;28;20161;-78
2023/05/17 09:53:28;;;;;;;4.57;1.67;;;;;;;;;;5064998;28;20179;-78
2023/05/17 09:55:58;;;;;;;6.53;2.07;;;;;;;;;;5055571;28;20183;-78
2023/05/17 09:58:25;;;;;;;5.67;1.63;;;;;;;;;;5059960;28;20278;-78
2023/05/17 10:00:58;;;;;;;7.03;2.10;;;;;;;;;;5072181;28;20227;-78
2023/05/17 10:03:26;;;;;;;6.47;1.80;;;;;;;;;;5064665;28;20213;-78
2023/05/17 10:05:53;;;;;;;8.63;2.07;;;;;;;;;;5056555;28;20186;-78
2023/05/17 10:08:22;;;;;;;8.90;2.07;;;;;;;;;;5039710;28;20186;-81
2023/05/17 10:10:49;;;;;;;5.53;1.73;;;;;;;;;;5056934;28;20182;-81
2023/05/17 10:13:18;;;;;;;11.63;1.90;;;;;;;;;;5056401;28;20271;-82
2023/05/17 10:15:44;;;;;;;5.47;1.80;;;;;;;;;;5043787;23;20267;-88
2023/05/17 10:18:11;;;;;;;6.13;1.80;;;;;;;;;;4999591;28;20199;-88
2023/05/17 10:20:37;;;;;;;4.67;1.73;;;;;;;;;;5042537;28;20258;-90
2023/05/17 10:23:05;;;;;;;9.20;2.10;;;;;;;;;;5015803;28;20184;-89
2023/05/17 10:25:31;;;;;;;7.63;1.80;;;;;;;;;;5016812;28;20177;-82
2023/05/17 10:27:58;;;;;;;6.30;1.93;;;;;;;;;;4999483;28;20239;-82
2023/05/17 10:30:25;;;;;;;7.33;2.23;;;;;;;;;;5016120;28;20177;-82
2023/05/17 10:32:52;;;;;;;5.27;2.00;;;;;;;;;;5016048;28;20180;-82
2023/05/17 10:35:19;;;;;;;8.90;2.23;;;;;;;;;;5016096;28;20177;-82
2023/05/17 10:37:45;;;;;;;6.23;2.00;;;;;;;;;;4996133;28;20205;-82
2023/05/17 10:40:12;;;;;;;5.50;1.63;;;;;;;;;;5012274;28;20200;-82
2023/05/17 10:42:40;;;;;;;7.00;1.90;;;;;;;;;;4996670;28;20208;-84
2023/05/17 10:45:08;;;;;;;7.00;1.87;;;;;;;;;;5012219;28;20177;-84
2023/05/17 10:47:34;;;;;;;7.60;2.10;;;;;;;;;;4996526;28;20190;-82
2023/05/17 10:50:02;;;;;;;7.43;2.00;;;;;;;;;;4995044;28;20193;-83
2023/05/17 10:52:28;;;;;;;5.07;2.10;;;;;;;;;;5025446;28;20230;-83
2023/05/17 10:54:54;;;;;;;6.78;2.10;;;;;;;;;;5002388;28;20275;-83
2023/05/17 10:57:33;;;;;;;8.43;2.00;;;;;;;;;;4996665;28;20208;-83
2023/05/17 11:00:04;;;;;;;6.47;2.10;;;;;;;;;;5001669;28;20492;-83
2023/05/17 11:02:31;;;;;;;6.43;2.13;;;;;;;;;;5036805;28;20224;-83
2023/05/17 11:04:59;;;;;;;7.43;1.83;;;;;;;;;;5017938;28;20177;-83
2023/05/17 11:07:36;;;;;;;9.13;2.27;;;;;;;;;;5016766;28;20184;-83
2023/05/17 11:10:12;;;;;;;6.68;1.95;;;;;;;;;;5019961;28;20199;-83
2023/05/17 11:12:42;;;;;;;7.18;1.98;;;;;;;;;;5014451;28;20180;-82
2023/05/17 11:15:15;;;;;;;8.98;2.30;;;;;;;;;;5041162;28;20444;-79
2023/05/17 11:17:50;;;;;;;6.95;1.90;;;;;;;;;;5021411;28;20209;-79
2023/05/17 11:20:25;;;;;;;9.00;2.20;;;;;;;;;;5031855;28;20273;-79
2023/05/17 11:22:57;;;;;;;10.35;2.30;;;;;;;;;;5015063;28;20173;-80
2023/05/17 11:25:23;;;;;;;6.75;1.77;;;;;;;;;;5036617;28;20172;-80
2023/05/17 11:27:51;;;;;;;5.80;2.13;;;;;;;;;;5019162;28;20185;-80
2023/05/17 11:30:30;;;;;;;9.80;2.23;;;;;;;;;;5035816;28;20192;-80
2023/05/17 11:33:06;;;;;;;6.72;2.00;;;;;;;;;;5018795;28;20266;-80
2023/05/17 11:35:33;;;;;;;6.22;2.15;;;;;;;;;;5036204;28;20339;-80
2023/05/17 11:38:15;;;;;;;9.32;2.40;;;;;;;;;;5032596;28;20208;-80
2023/05/17 11:40:41;;;;;;;8.10;2.37;;;;;;;;;;5012418;28;20182;-81
2023/05/17 11:43:11;;;;;;;5.10;2.20;;;;;;;;;;5015002;28;20217;-80
2023/05/17 11:45:46;;;;;;;11.50;2.60;;;;;;;;;;5002101;28;20188;-80
2023/05/17 11:48:12;;;;;;;9.05;2.70;;;;;;;;;;5026392;28;20172;-79
2023/05/17 11:50:39;;;;;;;7.82;2.58;;;;;;;;;;4999287;28;20182;-80
2023/05/17 11:53:06;;;;;;;11.77;2.75;;;;;;;;;;5009836;28;20260;-79
2023/05/17 11:55:42;;;;;;;7.90;2.70;;;;;;;;;;5004916;28;20191;-79
2023/05/17 11:58:09;;;;;;;7.38;2.42;;;;;;;;;;5018194;28;20250;-79
2023/05/17 12:00:41;;;;;;;8.20;2.90;;;;;;;;;;5008005;28;20184;-80
2023/05/17 12:03:16;;;;;;;6.93;2.45;;;;;;;;;;5029662;28;20181;-78
2023/05/17 12:05:43;;;;;;;8.20;2.72;;;;;;;;;;4997727;28;20169;-89
2023/05/17 12:08:09;;;;;;;8.70;2.80;;;;;;;;;;5009832;28;20177;-89
2023/05/17 12:10:36;;;;;;;7.00;2.80;;;;;;;;;;5017960;28;20181;-88
2023/05/17 12:13:02;;;;;;;9.65;2.60;;;;;;;;;;5029534;28;20181;-91
2023/05/17 12:15:29;;;;;;;8.75;2.50;;;;;;;;;;5018096;28;20221;-89
2023/05/17 12:17:55;;;;;;;9.15;3.25;;;;;;;;;;5017588;28;20429;-89
2023/05/17 12:20:22;;;;;;;8.45;2.92;;;;;;;;;;5017217;28;20272;-89
2023/05/17 12:22:54;;;;;;;10.32;2.97;;;;;;;;;;5017956;28;20180;-82
2023/05/17 12:25:23;;;;;;;9.02;3.45;;;;;;;;;;5000190;28;20464;-82
2023/05/17 12:27:50;;;;;;;11.40;2.72;;;;;;;;;;5019357;28;20176;-82
2023/05/17 12:30:16;;;;;;;8.60;3.10;;;;;;;;;;5023937;28;20192;-82
2023/05/17 12:32:42;;;;;;;7.63;2.90;;;;;;;;;;5032223;28;20433;-82
2023/05/17 12:35:08;;;;;;;8.45;3.20;;;;;;;;;;4999592;28;20433;-81
2023/05/17 12:37:35;;;;;;;10.43;3.00;;;;;;;;;;5000949;28;20476;-89
2023/05/17 12:40:03;;;;;;;8.68;2.83;;;;;;;;;;5016922;28;20466;-88
2023/05/17 12:42:30;;;;;;;9.55;3.10;;;;;;;;;;5016883;28;20413;-88
2023/05/17 12:44:56;;;;;;;9.95;2.85;;;;;;;;;;5000247;28;20406;-88
2023/05/17 12:47:25;;;;;;;8.57;3.00;;;;;;;;;;5033424;28;20425;-89
2023/05/17 12:49:52;;;;;;;10.73;3.20;;;;;;;;;;5000704;28;20506;-88
2023/05/17 12:52:18;;;;;;;9.02;2.70;;;;;;;;;;5020517;28;20181;-88
2023/05/17 12:54:45;;;;;;;10.98;2.85;;;;;;;;;;5017154;28;20181;-79
2023/05/17 12:57:14;;;;;;;10.35;3.20;;;;;;;;;;5016347;28;20504;-80
2023/05/17 12:59:47;;;;;;;8.25;2.88;;;;;;;;;;5016745;28;20180;-79
2023/05/17 13:02:13;;;;;;;9.68;3.20;;;;;;;;;;5015863;28;20479;-80
2023/05/17 13:04:40;;;;;;;9.27;3.10;;;;;;;;;;5032587;28;20444;-80
2023/05/17 13:07:06;;;;;;;10.35;3.28;;;;;;;;;;5020576;28;20495;-79
2023/05/17 13:09:33;;;;;;;8.90;2.80;;;;;;;;;;5012780;28;20189;-79
2023/05/17 13:12:00;;;;;;;10.50;2.83;;;;;;;;;;4988800;28;20419;-84
2023/05/17 13:14:43;;;;;;;9.55;3.63;;;;;;;;;;5039830;28;20192;-84
2023/05/17 13:17:10;;;;;;;11.88;3.20;;;;;;;;;;5052296;28;20427;-84
2023/05/17 13:19:37;;;;;;;8.18;2.78;;;;;;;;;;5029220;28;20176;-84
2023/05/17 13:22:03;;;;;;;12.15;2.70;;;;;;;;;;5033062;28;20176;-84
2023/05/17 13:24:30;;;;;;;9.65;2.95;;;;;;;;;;5033299;28;20276;-84
2023/05/17 13:26:56;;;;;;;6.18;2.95;;;;;;;;;;5014135;28;20197;-84
2023/05/17 13:29:22;;;;;;;10.35;3.50;;;;;;;;;;4994205;28;20426;-79
2023/05/17 13:31:48;;;;;;;11.07;3.20;;;;;;;;;;4996431;28;20425;-80
2023/05/17 13:34:15;;;;;;;10.25;3.22;;;;;;;;;;4999199;28;20410;-79
2023/05/17 13:36:41;;;;;;;10.13;3.00;;;;;;;;;;5016589;28;20212;-80
2023/05/17 13:39:07;;;;;;;13.52;3.17;;;;;;;;;;5024326;28;20223;-80
2023/05/17 13:41:33;;;;;;;10.18;2.90;;;;;;;;;;5016513;28;20208;-79
2023/05/17 13:43:59;;;;;;;7.90;2.97;;;;;;;;;;4990220;28;20263;-89
2023/05/17 13:46:25;;;;;;;14.50;3.13;;;;;;;;;;4999932;28;20487;-90
2023/05/17 13:48:51;;;;;;;12.53;3.23;;;;;;;;;;5019441;28;20414;-89
2023/05/17 13:51:18;;;;;;;8.00;3.20;;;;;;;;;;5017014;28;20435;-89
2023/05/17 13:53:44;;;;;;;10.60;3.38;;;;;;;;;;4997664;28;20437;-89
2023/05/17 13:56:10;;;;;;;8.57;3.05;;;;;;;;;;4999303;28;20606;-89
2023/05/17 13:58:36;;;;;;;10.00;3.25;;;;;;;;;;5011527;28;20490;-88
2023/05/17 14:01:02;;;;;;;7.47;2.72;;;;;;;;;;5013024;28;20329;-89
2023/05/17 14:03:28;;;;;;;9.57;2.92;;;;;;;;;;5016171;28;20193;-90
2023/05/17 14:05:54;;;;;;;12.85;3.30;;;;;;;;;;5016673;28;20267;-90
2023/05/17 14:08:20;;;;;;;7.97;3.17;;;;;;;;;;4990249;28;20313;-91
2023/05/17 14:10:46;;;;;;;10.87;3.10;;;;;;;;;;4995959;28;20191;-90
2023/05/17 14:13:12;;;;;;;10.35;3.13;;;;;;;;;;4993650;28;20188;-89
2023/05/17 14:15:41;;;;;;;10.43;3.23;;;;;;;;;;5016258;28;20243;-89
2023/05/17 14:18:09;;;;;;;10.35;3.45;;;;;;;;;;5014402;28;20459;-91
2023/05/17 14:20:35;;;;;;;9.17;2.53;;;;;;;;;;5029408;28;20219;-90
2023/05/17 14:23:01;;;;;;;11.40;3.20;;;;;;;;;;4999972;28;20184;-91
2023/05/17 14:25:27;;;;;;;10.00;3.20;;;;;;;;;;5015463;28;20181;-90
2023/05/17 14:27:53;;;;;;;11.47;3.17;;;;;;;;;;5032621;28;20184;-91
2023/05/17 14:30:20;;;;;;;8.83;2.97;;;;;;;;;;5011202;28;20202;-91
2023/05/17 14:32:46;;;;;;;9.02;3.20;;;;;;;;;;5019509;28;20188;-90